PWSweather.com
Personal Weather Stations
Station Observations
KRMIDAS
Braemar, Lake Zurich, IL 60047

BraemarLake Zurich, IL 60047

Lat: 42.178, Lon: -88.102

Elevation: 837

Station Type: Davis Vantage Pro 2

http://tomkeramidas.com/cumulus/index.htm

Latest ConditionsUpdated 11:15:01 AM CST Friday, Dec 9, 2016
Currently Today's Max Today's Min Today's Average
Temperature 24.3°F-4.3°C 24.3°F-4.3°C 19.9°F-6.7°C 21.5°F-5.8°C
Dew Point 16.2°F-8.8°C 19.4°F-7.0°C 16.1°F-8.8°C 17.8°F-7.9°C
Winds 4.0 mph WSW6.4 kmh WSW 8.0 mph W12.9 kmh W - 2.9 mph 4.7 kmh
Wind Gusts 14.0 mph22.5 kmh 18.0 mph29.0 kmh - -
Humidity 71% 89% 71% 86%
Pressure 30.56 in1034.9 mb 30.58 in1035.6 mb 30.46 in1031.5 mb -
Hour Temp Dew Point Humidity Winds Wind Gusts Pressure Precip Precip Rate Daily Precip Total
11:15 AM 24.3°F-4.3°C 16.2°F-8.8°C 71% 4.0 mph WSW6.4 kmh WSW 14.0 mph22.5 kmh 30.56 in1034.9 mb 0.00 in0.0 mm 0.00 in0.0 mm 0.00 in0.0 mm
11:00 AM 24.2°F-4.3°C 16.1°F-8.8°C 71% 5.0 mph WSW8.0 kmh WSW 15.0 mph24.1 kmh 30.57 in1035.2 mb 0.00 in0.0 mm 0.00 in0.0 mm 0.00 in0.0 mm
10:45 AM 24.2°F-4.3°C 16.1°F-8.8°C 71% 7.0 mph W11.3 kmh W 14.0 mph22.5 kmh 30.57 in1035.2 mb 0.00 in0.0 mm 0.00 in0.0 mm 0.00 in0.0 mm
10:30 AM 24.2°F-4.3°C 16.8°F-8.4°C 73% 5.0 mph WSW8.0 kmh WSW 14.0 mph22.5 kmh 30.57 in1035.2 mb 0.00 in0.0 mm 0.00 in0.0 mm 0.00 in0.0 mm
10:15 AM 24.2°F-4.3°C 18.3°F-7.6°C 78% 3.0 mph W4.8 kmh W 13.0 mph20.9 kmh 30.57 in1035.2 mb 0.00 in0.0 mm 0.00 in0.0 mm 0.00 in0.0 mm
10:00 AM 24.0°F-4.4°C 18.4°F-7.6°C 79% 4.0 mph W6.4 kmh W 12.0 mph19.3 kmh 30.58 in1035.6 mb 0.00 in0.0 mm 0.00 in0.0 mm 0.00 in0.0 mm
09:45 AM 23.6°F-4.7°C 18.9°F-7.3°C 82% 3.0 mph W4.8 kmh W 12.0 mph19.3 kmh 30.58 in1035.6 mb 0.00 in0.0 mm 0.00 in0.0 mm 0.00 in0.0 mm
09:30 AM 23.4°F-4.8°C 19.0°F-7.2°C 83% 6.0 mph WSW9.7 kmh WSW 13.0 mph20.9 kmh 30.57 in1035.2 mb 0.00 in0.0 mm 0.00 in0.0 mm 0.00 in0.0 mm
09:15 AM 23.1°F-4.9°C 19.3°F-7.1°C 85% 4.0 mph WSW6.4 kmh WSW 12.0 mph19.3 kmh 30.57 in1035.2 mb 0.00 in0.0 mm 0.00 in0.0 mm 0.00 in0.0 mm
09:00 AM 23.0°F-5.0°C 19.4°F-7.0°C 86% 3.0 mph WSW4.8 kmh WSW 11.0 mph17.7 kmh 30.57 in1035.2 mb 0.00 in0.0 mm 0.00 in0.0 mm 0.00 in0.0 mm
08:45 AM 22.9°F-5.1°C 19.3°F-7.1°C 86% 1.0 mph W1.6 kmh W 10.0 mph16.1 kmh 30.56 in1034.9 mb 0.00 in0.0 mm 0.00 in0.0 mm 0.00 in0.0 mm
08:30 AM 22.7°F-5.2°C 19.1°F-7.2°C 86% 1.0 mph WSW1.6 kmh WSW 8.0 mph12.9 kmh 30.56 in1034.9 mb 0.00 in0.0 mm 0.00 in0.0 mm 0.00 in0.0 mm
08:15 AM 22.5°F-5.3°C 18.9°F-7.3°C 86% Calm Calm -- 30.55 in1034.5 mb 0.00 in0.0 mm 0.00 in0.0 mm 0.00 in0.0 mm
08:00 AM 22.3°F-5.4°C 18.7°F-7.4°C 86% 2.0 mph W3.2 kmh W 10.0 mph16.1 kmh 30.55 in1034.5 mb 0.00 in0.0 mm 0.00 in0.0 mm 0.00 in0.0 mm
07:45 AM 22.1°F-5.5°C 18.6°F-7.4°C 86% Calm Calm -- 30.55 in1034.5 mb 0.00 in0.0 mm 0.00 in0.0 mm 0.00 in0.0 mm
07:30 AM 22.0°F-5.6°C 18.7°F-7.4°C 87% 1.0 mph W1.6 kmh W 6.0 mph9.7 kmh 30.55 in1034.5 mb 0.00 in0.0 mm 0.00 in0.0 mm 0.00 in0.0 mm
07:15 AM 21.8°F-5.7°C 18.5°F-7.5°C 87% 1.0 mph W1.6 kmh W 5.0 mph8.0 kmh 30.54 in1034.2 mb 0.00 in0.0 mm 0.00 in0.0 mm 0.00 in0.0 mm
07:00 AM 21.7°F-5.7°C 18.4°F-7.6°C 87% 2.0 mph W3.2 kmh W 10.0 mph16.1 kmh 30.54 in1034.2 mb 0.00 in0.0 mm 0.00 in0.0 mm 0.00 in0.0 mm
06:45 AM 21.6°F-5.8°C 18.3°F-7.6°C 87% 1.0 mph WSW1.6 kmh WSW 7.0 mph11.3 kmh 30.54 in1034.2 mb 0.00 in0.0 mm 0.00 in0.0 mm 0.00 in0.0 mm
06:30 AM 21.3°F-5.9°C 18.3°F-7.6°C 88% 1.0 mph WSW1.6 kmh WSW 9.0 mph14.5 kmh 30.54 in1034.2 mb 0.00 in0.0 mm 0.00 in0.0 mm 0.00 in0.0 mm
06:15 AM 21.1°F-6.1°C 18.1°F-7.7°C 88% 1.0 mph W1.6 kmh W 7.0 mph11.3 kmh 30.53 in1033.9 mb 0.00 in0.0 mm 0.00 in0.0 mm 0.00 in0.0 mm
06:00 AM 20.9°F-6.2°C 18.2°F-7.7°C 89% Calm Calm -- 30.52 in1033.5 mb 0.00 in0.0 mm 0.00 in0.0 mm 0.00 in0.0 mm
05:45 AM 20.8°F-6.2°C 18.1°F-7.7°C 89% Calm Calm -- 30.51 in1033.2 mb 0.00 in0.0 mm 0.00 in0.0 mm 0.00 in0.0 mm
05:30 AM 20.7°F-6.3°C 17.7°F-7.9°C 88% Calm Calm -- 30.51 in1033.2 mb 0.00 in0.0 mm 0.00 in0.0 mm 0.00 in0.0 mm
05:15 AM 20.8°F-6.2°C 17.8°F-7.9°C 88% Calm Calm -- 30.51 in1033.2 mb 0.00 in0.0 mm 0.00 in0.0 mm 0.00 in0.0 mm
05:00 AM 20.8°F-6.2°C 18.1°F-7.7°C 89% Calm Calm 6.0 mph9.7 kmh 30.51 in1033.2 mb 0.00 in0.0 mm 0.00 in0.0 mm 0.00 in0.0 mm
04:45 AM 20.7°F-6.3°C 18.0°F-7.8°C 89% Calm Calm -- 30.50 in1032.8 mb 0.00 in0.0 mm 0.00 in0.0 mm 0.00 in0.0 mm
04:30 AM 20.5°F-6.4°C 17.8°F-7.9°C 89% Calm Calm -- 30.50 in1032.8 mb 0.00 in0.0 mm 0.00 in0.0 mm 0.00 in0.0 mm
04:15 AM 20.3°F-6.5°C 17.6°F-8.0°C 89% Calm Calm -- 30.50 in1032.8 mb 0.00 in0.0 mm 0.00 in0.0 mm 0.00 in0.0 mm
04:00 AM 20.1°F-6.6°C 17.4°F-8.1°C 89% Calm Calm -- 30.50 in1032.8 mb 0.00 in0.0 mm 0.00 in0.0 mm 0.00 in0.0 mm
03:45 AM 20.0°F-6.7°C 17.3°F-8.2°C 89% 2.0 mph WSW3.2 kmh WSW 9.0 mph14.5 kmh 30.50 in1032.8 mb 0.00 in0.0 mm 0.00 in0.0 mm 0.00 in0.0 mm
03:30 AM 20.1°F-6.6°C 17.1°F-8.3°C 88% 2.0 mph W3.2 kmh W 11.0 mph17.7 kmh 30.50 in1032.8 mb 0.00 in0.0 mm 0.00 in0.0 mm 0.00 in0.0 mm
03:15 AM 20.0°F-6.7°C 17.0°F-8.3°C 88% Calm Calm 4.0 mph6.4 kmh 30.49 in1032.5 mb 0.00 in0.0 mm 0.00 in0.0 mm 0.00 in0.0 mm
03:00 AM 20.0°F-6.7°C 17.0°F-8.3°C 88% 2.0 mph WSW3.2 kmh WSW 9.0 mph14.5 kmh 30.49 in1032.5 mb 0.00 in0.0 mm 0.00 in0.0 mm 0.00 in0.0 mm
02:45 AM 19.9°F-6.7°C 16.9°F-8.4°C 88% 4.0 mph W6.4 kmh W 11.0 mph17.7 kmh 30.49 in1032.5 mb 0.00 in0.0 mm 0.00 in0.0 mm 0.00 in0.0 mm
02:30 AM 19.9°F-6.7°C 16.9°F-8.4°C 88% 6.0 mph W9.7 kmh W 12.0 mph19.3 kmh 30.48 in1032.2 mb 0.00 in0.0 mm 0.00 in0.0 mm 0.00 in0.0 mm
02:15 AM 20.0°F-6.7°C 17.0°F-8.3°C 88% 4.0 mph W6.4 kmh W 11.0 mph17.7 kmh 30.48 in1032.2 mb 0.00 in0.0 mm 0.00 in0.0 mm 0.00 in0.0 mm
02:00 AM 20.2°F-6.6°C 17.2°F-8.2°C 88% 7.0 mph W11.3 kmh W 12.0 mph19.3 kmh 30.48 in1032.2 mb 0.00 in0.0 mm 0.00 in0.0 mm 0.00 in0.0 mm
01:45 AM 20.2°F-6.6°C 17.2°F-8.2°C 88% 6.0 mph W9.7 kmh W 12.0 mph19.3 kmh 30.48 in1032.2 mb 0.00 in0.0 mm 0.00 in0.0 mm 0.00 in0.0 mm
01:30 AM 20.3°F-6.5°C 17.3°F-8.2°C 88% 5.0 mph W8.0 kmh W 18.0 mph29.0 kmh 30.47 in1031.8 mb 0.00 in0.0 mm 0.00 in0.0 mm 0.00 in0.0 mm
01:15 AM 20.3°F-6.5°C 17.3°F-8.2°C 88% 6.0 mph W9.7 kmh W 13.0 mph20.9 kmh 30.47 in1031.8 mb 0.00 in0.0 mm 0.00 in0.0 mm 0.00 in0.0 mm
01:00 AM 20.3°F-6.5°C 17.3°F-8.2°C 88% 8.0 mph W12.9 kmh W 15.0 mph24.1 kmh 30.46 in1031.5 mb 0.00 in0.0 mm 0.00 in0.0 mm 0.00 in0.0 mm
12:45 AM 20.2°F-6.6°C 17.2°F-8.2°C 88% 6.0 mph W9.7 kmh W 13.0 mph20.9 kmh 30.46 in1031.5 mb 0.00 in0.0 mm 0.00 in0.0 mm 0.00 in0.0 mm
12:30 AM 20.2°F-6.6°C 17.2°F-8.2°C 88% 8.0 mph W12.9 kmh W 13.0 mph20.9 kmh 30.46 in1031.5 mb 0.00 in0.0 mm 0.00 in0.0 mm 0.00 in0.0 mm
12:15 AM 20.2°F-6.6°C 17.2°F-8.2°C 88% 6.0 mph W9.7 kmh W 13.0 mph20.9 kmh 30.47 in1031.8 mb 0.00 in0.0 mm 0.00 in0.0 mm 0.00 in0.0 mm
12:00 AM 20.4°F-6.4°C 17.4°F-8.1°C 88% 7.0 mph WSW11.3 kmh WSW 15.0 mph24.1 kmh 30.46 in1031.5 mb 0.00 in0.0 mm 0.00 in0.0 mm 0.00 in0.0 mm